Time;durP1;ratioP1;P1;durP2;ratioP2;P2;SDS_P1;SDS_P2;PMS_P1;PMS_P2;Temp;Humidity;BMP_temperature;BMP_pressure;BME280_temperature;BME280_humidity;BME280_pressure;Samples;Min_cycle;Max_cycle;Signal;HPM_P1;HPM_P2
2022/07/04 00:01:03;;;;;;;5.15;4.65;;;;;;;18.56;78.31;100842.86;1756085;81;25890;-83
2022/07/04 00:03:30;;;;;;;5.70;4.67;;;;;;;18.58;78.17;100843.97;1755694;81;25926;-83
2022/07/04 00:05:56;;;;;;;8.10;4.80;;;;;;;18.56;78.11;100839.31;1755858;80;25815;-83
2022/07/04 00:08:22;;;;;;;5.45;4.95;;;;;;;18.55;78.29;100833.58;1737921;81;28298;-83
2022/07/04 00:10:49;;;;;;;5.75;5.00;;;;;;;18.53;78.30;100836.53;1751255;81;25761;-83
2022/07/04 00:13:15;;;;;;;5.40;4.17;;;;;;;18.50;78.17;100831.55;1751047;81;25881;-83
2022/07/04 00:15:41;;;;;;;5.58;4.60;;;;;;;18.48;78.11;100828.25;1700585;83;26404;-82
2022/07/04 00:18:07;;;;;;;6.47;4.50;;;;;;;18.46;78.18;100827.66;1752798;81;25872;-83
2022/07/04 00:20:34;;;;;;;7.87;4.83;;;;;;;18.44;78.19;100823.83;1755244;81;27426;-82
2022/07/04 00:23:00;;;;;;;10.13;5.72;;;;;;;18.40;78.05;100815.83;1754796;81;25798;-83
2022/07/04 00:25:27;;;;;;;9.48;6.85;;;;;;;18.36;78.04;100816.00;1753252;81;25308;-83
2022/07/04 00:27:53;;;;;;;9.18;5.60;;;;;;;18.33;78.61;100815.10;1725662;82;26433;-84
2022/07/04 00:30:19;;;;;;;5.92;5.30;;;;;;;18.33;78.78;100813.74;1720145;82;25961;-83
2022/07/04 00:32:46;;;;;;;7.70;5.03;;;;;;;18.29;78.80;100809.84;1732025;82;27447;-82
2022/07/04 00:35:12;;;;;;;6.20;4.50;;;;;;;18.26;78.53;100809.49;1753509;80;26495;-83
2022/07/04 00:37:39;;;;;;;5.80;5.25;;;;;;;18.22;78.31;100813.73;1753448;81;25321;-83
2022/07/04 00:40:06;;;;;;;6.95;5.60;;;;;;;18.17;78.38;100814.42;1753235;81;26627;-82
2022/07/04 00:42:32;;;;;;;7.40;5.75;;;;;;;18.15;78.77;100805.69;1718996;83;26502;-84
2022/07/04 00:44:58;;;;;;;7.70;5.05;;;;;;;18.12;78.92;100806.14;1753005;81;27525;-83
2022/07/04 00:47:25;;;;;;;11.18;5.47;;;;;;;18.12;79.03;100806.66;1708476;83;25817;-83
2022/07/04 00:49:53;;;;;;;7.53;5.20;;;;;;;18.13;79.23;100807.81;1753638;81;25765;-83
2022/07/04 00:52:20;;;;;;;6.28;5.60;;;;;;;18.12;79.53;100808.85;1715120;83;26792;-83
2022/07/04 00:54:49;;;;;;;8.23;6.05;;;;;;;18.10;79.76;100803.36;1753386;81;26019;-83
2022/07/04 00:57:15;;;;;;;7.87;5.90;;;;;;;18.07;79.64;100801.93;1711512;83;27463;-82
2022/07/04 00:59:41;;;;;;;6.90;5.17;;;;;;;18.04;79.74;100805.12;1753108;81;25931;-83
2022/07/04 01:02:08;;;;;;;8.80;5.62;;;;;;;18.01;79.86;100801.50;1726159;83;25744;-83
2022/07/04 01:04:34;;;;;;;7.33;6.28;;;;;;;17.95;79.72;100797.00;1753042;80;25730;-83
2022/07/04 01:07:02;;;;;;;5.92;5.12;;;;;;;17.95;79.91;100793.45;1712869;83;25865;-83
2022/07/04 01:09:29;;;;;;;7.62;5.70;;;;;;;17.93;80.04;100785.56;1753505;81;28293;-83
2022/07/04 01:11:55;;;;;;;7.70;6.30;;;;;;;17.91;80.04;100784.14;1725727;83;25799;-83
2022/07/04 01:14:22;;;;;;;11.97;7.05;;;;;;;17.92;80.32;100784.45;1750672;80;25298;-84
2022/07/04 01:16:48;;;;;;;11.00;7.15;;;;;;;17.96;81.13;100790.54;1754607;81;25851;-83
2022/07/04 01:19:14;;;;;;;7.58;6.78;;;;;;;18.01;81.64;100787.95;1715501;83;25770;-83
2022/07/04 01:21:41;;;;;;;10.25;7.87;;;;;;;18.05;81.86;100788.33;1752562;81;27430;-84
2022/07/04 01:24:12;;;;;;;9.80;8.33;;;;;;;18.09;82.56;100787.61;1705798;83;26053;-83
2022/07/04 01:26:39;;;;;;;9.18;7.50;;;;;;;18.14;82.88;100793.17;1752835;81;25839;-83
2022/07/04 01:29:05;;;;;;;11.03;7.78;;;;;;;18.18;83.01;100792.17;1724113;83;25848;-83
2022/07/04 01:31:31;;;;;;;9.65;7.55;;;;;;;18.20;82.79;100796.84;1755300;80;25683;-83
2022/07/04 01:33:58;;;;;;;10.15;8.15;;;;;;;18.22;83.24;100792.04;1753107;81;27416;-82
2022/07/04 01:36:24;;;;;;;9.23;8.20;;;;;;;18.25;83.61;100798.33;1758247;80;25826;-83
2022/07/04 01:38:50;;;;;;;9.15;7.72;;;;;;;18.25;83.75;100798.33;1758481;81;26520;-83
2022/07/04 01:41:17;;;;;;;9.20;7.25;;;;;;;18.23;83.57;100795.86;1745963;81;26639;-83
2022/07/04 01:43:43;;;;;;;16.10;8.05;;;;;;;18.22;83.45;100799.62;1758482;81;25699;-83
2022/07/04 01:46:09;;;;;;;8.38;7.20;;;;;;;18.22;83.34;100792.04;1752911;81;26868;-83
2022/07/04 01:48:35;;;;;;;8.03;6.60;;;;;;;18.21;83.29;100796.63;1713060;83;25817;-83
2022/07/04 01:51:02;;;;;;;9.08;6.35;;;;;;;18.19;83.00;100802.81;1752429;81;25927;-84
2022/07/04 01:53:28;;;;;;;11.10;6.42;;;;;;;18.19;82.84;100808.75;1758238;81;26313;-83
2022/07/04 01:55:54;;;;;;;7.12;6.45;;;;;;;18.17;82.57;100802.22;1757640;80;25723;-83
2022/07/04 01:58:20;;;;;;;11.50;7.25;;;;;;;18.14;82.32;100804.02;1752064;81;27612;-83
2022/07/04 02:03:32;;;;;;;10.78;6.97;;;;;;;18.08;82.03;100796.81;1743671;81;25921;-84
2022/07/04 02:05:58;;;;;;;7.75;6.95;;;;;;;18.03;82.08;100807.52;1752701;80;26563;-83
2022/07/04 02:09:14;;;;;;;8.33;7.10;;;;;;;17.99;81.82;100802.78;1712850;83;25905;-83
2022/07/04 02:10:53;;;;;;;7.15;6.45;;;;;;;17.93;81.92;100800.47;1743566;81;28367;-83
2022/07/04 02:13:19;;;;;;;7.15;6.12;;;;;;;17.89;82.04;100806.06;1726041;83;25841;-83
2022/07/04 02:15:45;;;;;;;6.47;5.87;;;;;;;17.86;81.94;100805.14;1751501;81;25733;-83
2022/07/04 02:18:13;;;;;;;7.90;6.20;;;;;;;17.83;81.75;100813.75;1755505;81;25768;-83
2022/07/04 02:20:39;;;;;;;6.85;6.22;;;;;;;17.80;82.17;100811.48;1708308;83;25931;-84
2022/07/04 02:23:06;;;;;;;7.55;6.45;;;;;;;17.78;82.21;100810.05;1752773;81;27454;-83
2022/07/04 02:25:33;;;;;;;7.60;6.90;;;;;;;17.74;82.33;100806.98;1758126;80;25805;-84
2022/07/04 02:27:59;;;;;;;9.45;7.00;;;;;;;17.70;82.16;100813.41;1752946;81;25491;-83
2022/07/04 02:30:26;;;;;;;7.35;5.70;;;;;;;17.66;81.78;100812.73;1726041;82;26061;-83
2022/07/04 02:32:52;;;;;;;6.72;5.62;;;;;;;17.59;81.91;100814.16;1753241;81;25816;-83
2022/07/04 02:35:18;;;;;;;7.10;6.08;;;;;;;17.53;81.53;100811.02;1722096;82;28395;-82
2022/07/04 02:37:45;;;;;;;7.65;5.15;;;;;;;17.49;81.77;100808.39;1756504;81;25572;-82
2022/07/04 02:40:11;;;;;;;6.72;6.03;;;;;;;17.48;81.74;100805.92;1752673;81;25830;-83
2022/07/04 02:42:38;;;;;;;10.48;5.83;;;;;;;17.46;81.66;100801.27;1760152;81;25754;-83
2022/07/04 02:45:06;;;;;;;7.08;6.37;;;;;;;17.45;81.88;100799.63;1754767;81;26024;-82
2022/07/04 02:47:32;;;;;;;9.15;6.55;;;;;;;17.42;81.83;100798.19;1714990;83;27460;-82
2022/07/04 02:50:02;;;;;;;8.30;7.40;;;;;;;17.41;81.86;100804.64;1754823;81;25919;-83
2022/07/04 02:52:27;;;;;;;8.60;6.95;;;;;;;17.41;82.12;100802.45;1705808;82;26463;-82
2022/07/04 02:54:53;;;;;;;9.63;6.95;;;;;;;17.38;82.16;100806.47;1754811;80;26753;-83
2022/07/04 02:57:20;;;;;;;7.58;6.78;;;;;;;17.37;82.33;100807.51;1758662;80;25309;-84
2022/07/04 02:59:46;;;;;;;7.90;6.50;;;;;;;17.37;82.43;100806.67;1760359;80;28238;-83
2022/07/04 03:02:12;;;;;;;9.03;7.15;;;;;;;17.35;82.23;100802.02;1749773;81;26009;-83
2022/07/04 03:04:39;;;;;;;7.30;6.67;;;;;;;17.34;82.21;100807.95;1734662;81;25999;-83
2022/07/04 03:07:07;;;;;;;9.25;6.40;;;;;;;17.32;82.06;100803.84;1776875;80;25773;-83
2022/07/04 03:09:34;;;;;;;8.45;6.78;;;;;;;17.28;81.99;100809.41;1748383;80;25605;-84
2022/07/04 03:12:04;;;;;;;9.25;6.50;;;;;;;17.27;82.25;100810.44;1759707;80;27684;-83
2022/07/04 03:14:30;;;;;;;8.23;6.80;;;;;;;17.26;82.45;100818.25;1745160;80;25997;-83
2022/07/04 03:16:56;;;;;;;9.43;6.87;;;;;;;17.25;82.89;100814.73;1760155;80;25839;-82
2022/07/04 03:19:23;;;;;;;9.38;8.48;;;;;;;17.26;83.12;100819.08;1750927;81;25855;-83
2022/07/04 03:21:49;;;;;;;10.03;8.38;;;;;;;17.27;83.49;100818.05;1759380;81;25330;-83
2022/07/04 03:24:16;;;;;;;11.08;7.80;;;;;;;17.29;83.52;100822.70;1761037;81;27452;-82
2022/07/04 03:26:42;;;;;;;9.48;7.70;;;;;;;17.29;83.41;100828.64;1760670;81;26470;-83
2022/07/04 03:29:08;;;;;;;11.28;6.15;;;;;;;17.27;83.32;100828.04;1771582;80;25992;-83
2022/07/04 03:31:34;;;;;;;6.70;5.72;;;;;;;17.25;83.46;100827.44;1760526;80;25850;-82
2022/07/04 03:34:01;;;;;;;9.13;6.20;;;;;;;17.28;83.30;100832.42;1760832;81;26036;-82
2022/07/04 03:36:27;;;;;;;7.65;6.08;;;;;;;17.32;83.37;100829.56;1752765;81;26865;-82
2022/07/04 03:38:53;;;;;;;7.33;6.60;;;;;;;17.38;83.77;100820.02;1756757;81;26450;-83
2022/07/04 03:41:19;;;;;;;9.50;6.62;;;;;;;17.47;84.02;100813.77;1754524;81;25315;-83
2022/07/04 03:43:46;;;;;;;9.48;7.42;;;;;;;17.55;84.00;100816.19;1753164;81;25755;-83
2022/07/04 03:46:12;;;;;;;11.50;6.95;;;;;;;17.62;84.32;100817.75;1767052;78;25964;-82
2022/07/04 03:48:38;;;;;;;10.72;7.87;;;;;;;17.69;84.53;100819.03;1773816;80;27429;-82
2022/07/04 03:51:05;;;;;;;11.55;8.05;;;;;;;17.78;84.70;100823.61;1778349;80;25840;-83
2022/07/04 03:53:31;;;;;;;10.98;8.48;;;;;;;17.88;84.88;100823.91;1772685;80;25781;-83
2022/07/04 03:55:57;;;;;;;15.63;8.53;;;;;;;17.93;85.02;100818.09;1765176;80;26417;-83
2022/07/04 03:58:23;;;;;;;11.43;8.38;;;;;;;18.03;85.53;100820.23;1754035;80;25934;-83
2022/07/04 04:00:50;;;;;;;12.93;7.95;;;;;;;18.11;85.55;100821.30;1766500;80;27525;-83
2022/07/04 04:06:01;;;;;;;9.63;7.70;;;;;;;18.22;85.92;100813.17;1767528;80;25766;-82
2022/07/04 04:08:27;;;;;;;9.03;7.90;;;;;;;18.30;86.27;100817.45;1770130;80;26421;-82
2022/07/04 04:10:54;;;;;;;10.85;9.23;;;;;;;18.40;86.46;100816.36;1755479;81;25986;-83
2022/07/04 04:13:20;;;;;;;12.30;9.10;;;;;;;18.51;86.57;100818.83;1752501;81;27448;-83
2022/07/04 04:15:46;;;;;;;11.83;9.45;;;;;;;18.62;87.06;100814.79;1757927;80;25864;-83
2022/07/04 04:18:13;;;;;;;13.68;9.98;;;;;;;18.75;87.24;100806.43;1752751;81;25787;-83
2022/07/04 04:20:40;;;;;;;12.18;9.65;;;;;;;18.87;87.41;100801.82;1759319;80;25852;-83
2022/07/04 04:23:06;;;;;;;11.43;10.00;;;;;;;19.00;87.47;100808.38;1776059;80;26074;-83
2022/07/04 04:25:33;;;;;;;13.38;9.70;;;;;;;19.11;87.38;100806.72;1760940;80;28306;-83
2022/07/04 04:27:59;;;;;;;12.65;9.70;;;;;;;19.21;87.34;100809.13;1729150;82;25825;-82
2022/07/04 04:30:25;;;;;;;9.98;9.03;;;;;;;19.29;87.09;100812.55;1752742;81;25884;-82
2022/07/04 04:32:52;;;;;;;10.63;9.23;;;;;;;19.37;87.05;100803.53;1728840;82;25900;-83
2022/07/04 04:35:19;;;;;;;11.93;9.60;;;;;;;19.45;86.83;100809.95;1752386;80;25755;-82
2022/07/04 04:37:45;;;;;;;12.60;9.38;;;;;;;19.57;86.91;100804.47;1728756;82;27458;-83
2022/07/04 04:40:12;;;;;;;11.22;8.63;;;;;;;19.65;86.79;100802.75;1752285;81;25858;-83
2022/07/04 04:42:38;;;;;;;11.45;9.68;;;;;;;19.72;86.71;100798.81;1728826;82;25841;-82
2022/07/04 04:45:06;;;;;;;9.95;8.25;;;;;;;19.80;86.45;100797.62;1752478;80;25955;-83
2022/07/04 04:47:32;;;;;;;11.43;8.75;;;;;;;19.88;86.48;100802.67;1728867;82;25953;-83
2022/07/04 04:49:58;;;;;;;11.85;9.05;;;;;;;19.96;86.33;100802.27;1752882;81;28200;-83
2022/07/04 04:52:24;;;;;;;9.38;8.38;;;;;;;20.04;86.16;100797.80;1728655;82;25803;-83
2022/07/04 04:54:51;;;;;;;10.58;7.90;;;;;;;20.13;86.52;100791.42;1752648;80;25326;-83
2022/07/04 04:57:17;;;;;;;9.45;7.35;;;;;;;20.20;86.44;100795.69;1728952;82;25871;-83
2022/07/04 04:59:43;;;;;;;10.23;7.37;;;;;;;20.26;86.18;100799.31;1752546;81;25893;-83
2022/07/04 05:02:10;;;;;;;11.75;7.60;;;;;;;20.34;86.12;100801.09;1728777;82;27456;-82
2022/07/04 05:04:36;;;;;;;8.68;6.85;;;;;;;20.43;86.27;100802.35;1752619;80;25906;-83
2022/07/04 05:07:03;;;;;;;9.10;7.28;;;;;;;20.50;86.13;100800.30;1728611;82;26110;-82
2022/07/04 05:09:29;;;;;;;9.58;6.83;;;;;;;20.60;86.01;100799.63;1752730;81;26370;-83
2022/07/04 05:11:55;;;;;;;9.85;7.00;;;;;;;20.70;85.83;100806.59;1728859;82;26529;-83
2022/07/04 05:14:22;;;;;;;8.43;7.28;;;;;;;20.75;85.83;100803.95;1729442;81;27449;-83
2022/07/04 05:16:48;;;;;;;8.45;6.83;;;;;;;20.85;85.91;100809.55;1726873;83;26280;-82
2022/07/04 05:19:14;;;;;;;8.13;6.45;;;;;;;20.96;85.97;100800.47;1701566;82;25907;-83
2022/07/04 05:21:40;;;;;;;6.95;6.20;;;;;;;21.10;85.63;100817.33;1701041;84;26592;-83
2022/07/04 05:24:07;;;;;;;8.00;7.05;;;;;;;21.23;85.52;100808.80;1701908;84;25754;-83
2022/07/04 05:26:33;;;;;;;7.17;6.47;;;;;;;21.37;85.50;100810.91;1717575;82;28464;-83
2022/07/04 05:28:59;;;;;;;9.33;7.37;;;;;;;21.53;85.27;100810.58;1729171;82;26005;-83
2022/07/04 05:31:26;;;;;;;7.58;6.78;;;;;;;21.67;84.59;100813.73;1751651;81;25870;-83
2022/07/04 05:33:54;;;;;;;7.78;5.53;;;;;;;21.79;84.43;100809.78;1751553;81;26477;-83
2022/07/04 05:36:22;;;;;;;8.48;6.33;;;;;;;21.92;83.80;100808.62;1728105;82;25963;-83
2022/07/04 05:38:48;;;;;;;10.03;5.85;;;;;;;21.98;83.24;100811.69;1752069;81;27471;-84
2022/07/04 05:41:15;;;;;;;7.10;5.92;;;;;;;22.06;82.86;100807.13;1728471;82;25902;-83
2022/07/04 05:43:41;;;;;;;6.85;6.15;;;;;;;22.11;82.42;100802.53;1751781;81;25775;-83
2022/07/04 05:46:08;;;;;;;7.67;6.78;;;;;;;22.18;81.65;100806.42;1752066;80;26561;-83
2022/07/04 05:48:35;;;;;;;5.50;5.00;;;;;;;22.21;81.73;100805.38;1728085;82;25895;-84
2022/07/04 05:51:05;;;;;;;6.85;6.10;;;;;;;22.24;81.63;100806.22;1752223;81;27483;-83
2022/07/04 05:53:32;;;;;;;8.50;5.62;;;;;;;22.25;81.06;100804.31;1728181;82;33907;-83
2022/07/04 05:55:58;;;;;;;9.25;5.47;;;;;;;22.30;80.99;100799.45;1745882;80;25895;-84
2022/07/04 05:58:25;;;;;;;6.42;5.67;;;;;;;22.38;80.27;100801.70;1750398;81;26658;-83
2022/07/04 06:00:51;;;;;;;5.53;5.03;;;;;;;22.46;80.33;100806.69;1754813;81;25984;-84
2022/07/04 06:03:18;;;;;;;5.80;5.20;;;;;;;22.54;80.02;100806.23;1752472;81;26864;-84
2022/07/04 06:05:44;;;;;;;7.03;4.87;;;;;;;22.63;80.19;100804.67;1748368;80;26271;-83
2022/07/04 06:08:11;;;;;;;5.60;5.10;;;;;;;22.73;79.37;100801.48;1752804;81;26573;-83
2022/07/04 06:10:39;;;;;;;7.75;4.67;;;;;;;22.80;79.37;100804.82;1754297;81;25756;-83
2022/07/04 06:13:05;;;;;;;5.90;4.78;;;;;;;22.90;78.84;100801.35;1754819;80;26544;-83
2022/07/04 06:15:32;;;;;;;6.15;4.90;;;;;;;23.01;78.82;100798.41;1752247;80;27427;-84
2022/07/04 06:17:58;;;;;;;6.85;4.70;;;;;;;23.09;78.11;100794.38;1716517;83;26593;-83
2022/07/04 06:20:24;;;;;;;6.60;4.87;;;;;;;23.12;77.34;100793.83;1753070;81;25774;-83
2022/07/04 06:22:51;;;;;;;9.55;5.15;;;;;;;23.20;78.00;100781.59;1714564;83;25792;-84
2022/07/04 06:25:19;;;;;;;5.75;4.30;;;;;;;23.30;77.90;100783.83;1740511;80;25505;-83
2022/07/04 06:27:48;;;;;;;5.20;4.75;;;;;;;23.36;76.97;100780.06;1703092;83;27471;-84
2022/07/04 06:30:16;;;;;;;4.90;4.40;;;;;;;23.41;77.37;100780.63;1754753;81;25901;-84
2022/07/04 06:32:47;;;;;;;6.00;5.03;;;;;;;23.41;76.51;100777.36;1705580;82;25815;-83
2022/07/04 06:38:05;;;;;;;4.45;4.00;;;;;;;23.53;75.93;100774.38;1757884;80;25849;-84
2022/07/04 06:40:32;;;;;;;5.87;4.30;;;;;;;23.59;76.22;100766.47;1752898;81;27405;-84
2022/07/04 06:42:58;;;;;;;7.60;4.17;;;;;;;23.70;75.71;100754.47;1725020;83;26070;-83
2022/07/04 06:45:25;;;;;;;5.05;3.72;;;;;;;23.78;75.10;100758.87;1752508;81;25889;-83
2022/07/04 06:47:51;;;;;;;5.15;4.22;;;;;;;23.86;76.24;100756.72;1757809;81;26538;-84
2022/07/04 06:50:18;;;;;;;5.42;4.42;;;;;;;23.92;74.62;100763.30;1747881;80;25900;-83
2022/07/04 06:52:45;;;;;;;5.12;4.58;;;;;;;23.95;74.72;100769.58;1752109;81;27498;-84
2022/07/04 06:55:12;;;;;;;5.42;3.90;;;;;;;23.98;74.27;100767.68;1716260;83;25886;-83
2022/07/04 06:57:38;;;;;;;4.08;3.72;;;;;;;24.07;73.88;100763.36;1752690;81;25786;-83
2022/07/04 07:00:07;;;;;;;4.60;3.50;;;;;;;24.14;73.25;100771.31;1703555;83;25962;-84
2022/07/04 07:02:37;;;;;;;4.53;3.30;;;;;;;24.19;72.23;100768.02;1752668;81;26504;-83
2022/07/04 07:05:05;;;;;;;3.37;3.05;;;;;;;24.23;72.13;100768.31;1709324;83;27451;-83
2022/07/04 07:07:31;;;;;;;4.67;2.95;;;;;;;24.30;72.29;100767.48;1750286;81;25777;-84
2022/07/04 07:09:58;;;;;;;6.05;3.02;;;;;;;24.40;72.64;100764.77;1725234;83;25332;-83
2022/07/04 07:12:24;;;;;;;3.40;2.83;;;;;;;24.49;72.61;100765.84;1754971;81;25931;-83
2022/07/04 07:14:51;;;;;;;3.17;2.90;;;;;;;24.55;71.41;100760.62;1752319;80;26794;-83
2022/07/04 07:17:19;;;;;;;4.47;3.37;;;;;;;24.64;71.01;100763.09;1721179;83;28010;-83
2022/07/04 07:19:46;;;;;;;3.92;2.90;;;;;;;24.73;71.69;100763.36;1752782;81;25931;-83
2022/07/04 07:22:14;;;;;;;4.72;2.85;;;;;;;24.80;70.50;100764.77;1712462;83;25882;-82
2022/07/04 07:24:40;;;;;;;4.40;2.25;;;;;;;24.81;69.68;100760.91;1752789;81;25994;-82
2022/07/04 07:27:08;;;;;;;4.55;2.80;;;;;;;24.85;69.17;100760.62;1714305;82;25982;-83
2022/07/04 07:29:35;;;;;;;2.95;1.98;;;;;;;24.92;70.38;100769.94;1753082;81;27435;-83
2022/07/04 07:32:02;;;;;;;2.25;1.90;;;;;;;25.02;69.14;100767.19;1723627;81;25904;-83
2022/07/04 07:34:28;;;;;;;2.50;2.30;;;;;;;25.04;68.76;100763.05;1755555;80;25782;-83
2022/07/04 07:36:56;;;;;;;3.15;2.10;;;;;;;25.10;69.47;100769.36;1755382;81;25821;-83
2022/07/04 07:39:22;;;;;;;4.30;2.35;;;;;;;25.16;68.55;100768.24;1755637;81;25909;-81
2022/07/04 07:41:48;;;;;;;2.67;2.08;;;;;;;25.23;67.58;100768.20;1752823;81;27440;-83
2022/07/04 07:44:15;;;;;;;2.95;2.40;;;;;;;25.29;67.21;100775.88;1756252;81;26023;-82
2022/07/04 07:46:41;;;;;;;8.88;2.10;;;;;;;25.34;66.36;100775.05;1753485;81;25778;-82
2022/07/04 07:49:07;;;;;;;3.33;2.52;;;;;;;25.38;65.50;100772.84;1753220;81;26119;-82
2022/07/04 07:51:34;;;;;;;3.05;2.58;;;;;;;25.42;66.23;100779.44;1758199;81;25868;-83
2022/07/04 07:54:01;;;;;;;2.27;2.08;;;;;;;25.49;66.12;100775.02;1753044;81;27530;-82
2022/07/04 07:56:27;;;;;;;3.72;2.00;;;;;;;25.58;65.94;100778.25;1758339;80;25914;-82
2022/07/04 07:58:54;;;;;;;2.62;1.90;;;;;;;25.65;65.62;100772.46;1725089;81;25884;-83
2022/07/04 08:01:20;;;;;;;2.27;1.80;;;;;;;25.79;65.34;100779.80;1743814;81;25773;-83
2022/07/04 08:06:33;;;;;;;4.03;1.85;;;;;;;25.96;63.98;100765.72;1753035;81;28291;-82
2022/07/04 08:09:00;;;;;;;2.17;1.98;;;;;;;26.07;63.99;100771.97;1758532;81;26412;-83
2022/07/04 08:11:26;;;;;;;4.55;2.08;;;;;;;26.15;64.29;100765.34;1753095;81;25860;-82
2022/07/04 08:13:53;;;;;;;3.50;2.47;;;;;;;26.17;62.25;100762.31;1721240;83;25826;-82
2022/07/04 08:16:20;;;;;;;2.30;1.40;;;;;;;26.17;61.45;100757.64;1741558;81;25589;-82
2022/07/04 08:18:46;;;;;;;4.00;1.70;;;;;;;26.16;61.26;100761.48;1758463;80;27459;-82
2022/07/04 08:21:13;;;;;;;5.10;1.85;;;;;;;26.16;60.18;100755.98;1758251;81;26491;-82
2022/07/04 08:23:41;;;;;;;4.22;1.70;;;;;;;26.18;60.69;100753.78;1752586;81;25837;-83
2022/07/04 08:26:07;;;;;;;1.87;1.50;;;;;;;26.24;60.42;100756.74;1743036;81;26502;-82
2022/07/04 08:28:33;;;;;;;5.47;1.65;;;;;;;26.30;60.18;100763.86;1748906;81;25882;-81
2022/07/04 08:31:00;;;;;;;1.92;1.67;;;;;;;26.37;58.87;100766.25;1755550;81;27545;-82
2022/07/04 08:33:26;;;;;;;2.02;1.67;;;;;;;26.28;58.58;100763.88;1725933;81;25856;-82
2022/07/04 08:35:53;;;;;;;2.98;1.62;;;;;;;26.14;57.96;100773.30;1753162;80;26569;-83
2022/07/04 08:38:20;;;;;;;2.55;1.47;;;;;;;26.06;57.83;100767.56;1705954;83;26457;-82
2022/07/04 08:40:48;;;;;;;1.60;1.50;;;;;;;26.11;58.42;100776.61;1753038;81;26133;-82
2022/07/04 08:43:15;;;;;;;2.15;1.95;;;;;;;26.12;58.16;100771.40;1755447;81;28285;-83
2022/07/04 08:45:43;;;;;;;1.87;1.65;;;;;;;26.18;57.78;100764.76;1758010;80;25905;-83
2022/07/04 08:48:10;;;;;;;1.92;1.67;;;;;;;26.27;56.91;100764.42;1731497;81;25362;-82
2022/07/04 08:50:47;;;;;;;2.90;1.62;;;;;;;26.33;57.37;100755.03;1755983;81;25805;-82
2022/07/04 08:53:20;;;;;;;4.05;1.57;;;;;;;26.46;57.23;100763.16;1725218;81;25387;-83
2022/07/04 08:58:33;;;;;;;3.70;1.42;;;;;;;26.40;56.59;100758.28;1758801;81;26084;-82
2022/07/04 09:01:07;;;;;;;2.47;1.62;;;;;;;26.41;56.75;100755.78;1758232;81;25806;-82
2022/07/04 09:03:34;;;;;;;4.20;1.72;;;;;;;26.36;56.11;100758.59;1753218;81;26524;-83
2022/07/04 09:06:01;;;;;;;3.30;2.08;;;;;;;26.27;56.09;100752.61;1706996;83;25842;-82
2022/07/04 09:08:27;;;;;;;2.60;1.62;;;;;;;26.19;56.28;100757.34;1752671;81;28285;-82
2022/07/04 09:10:54;;;;;;;2.22;1.95;;;;;;;26.22;56.18;100761.70;1757474;81;26532;-83
2022/07/04 09:13:21;;;;;;;1.82;1.50;;;;;;;26.26;56.46;100757.85;1752680;81;25929;-83
2022/07/04 09:15:50;;;;;;;4.25;1.87;;;;;;;26.29;55.09;100760.84;1713253;83;27051;-82
2022/07/04 09:18:27;;;;;;;3.55;1.82;;;;;;;26.39;56.46;100762.70;1753317;81;25704;-82
2022/07/04 09:20:58;;;;;;;2.65;1.65;;;;;;;26.54;56.87;100764.74;1716174;83;27475;-83
2022/07/04 09:23:31;;;;;;;2.10;1.70;;;;;;;26.62;55.79;100762.73;1741003;81;26102;-82
2022/07/04 09:26:19;;;;;;;2.22;1.50;;;;;;;26.62;55.22;100766.86;1712146;83;26517;-82
2022/07/04 09:28:58;;;;;;;2.92;1.72;;;;;;;26.58;55.60;100769.13;1753108;81;25762;-82
2022/07/04 09:31:30;;;;;;;2.98;1.70;;;;;;;26.64;55.40;100774.84;1746647;81;25822;-82
2022/07/04 09:34:05;;;;;;;2.45;1.98;;;;;;;26.79;55.24;100776.11;1754392;80;27440;-82
2022/07/04 09:36:36;;;;;;;1.90;1.80;;;;;;;26.93;54.82;100774.84;1752579;81;25717;-82
2022/07/04 09:39:17;;;;;;;;;;;;;;;26.91;52.75;100769.66;1689549;83;25848;-82
2022/07/04 09:41:55;;;;;;;2.17;1.80;;;;;;;26.92;53.29;100772.68;1758436;81;26020;-82
2022/07/04 09:44:24;;;;;;;1.70;1.60;;;;;;;26.96;53.45;100764.66;1752794;80;25798;-82
2022/07/04 09:46:51;;;;;;;3.70;2.10;;;;;;;27.06;52.92;100773.63;1758314;81;27676;-82
2022/07/04 09:49:19;;;;;;;4.50;2.83;;;;;;;27.11;52.53;100780.45;1758156;81;26477;-82
2022/07/04 09:51:49;;;;;;;4.05;1.95;;;;;;;27.17;52.90;100779.28;1758276;81;25745;-82
2022/07/04 09:54:31;;;;;;;3.12;2.75;;;;;;;27.23;52.88;100778.10;1745023;81;26468;-82
2022/07/04 09:56:59;;;;;;;2.62;2.08;;;;;;;27.20;52.28;100770.42;1755152;81;25290;-82
2022/07/04 09:59:28;;;;;;;4.15;2.35;;;;;;;27.17;52.07;100772.41;1757139;81;27477;-82
2022/07/04 10:02:10;;;;;;;6.12;1.90;;;;;;;27.16;51.77;100769.37;1736751;81;25795;-82
2022/07/04 10:04:51;;;;;;;4.75;2.17;;;;;;;27.18;52.06;100768.52;1757665;80;26510;-82
2022/07/04 10:07:35;;;;;;;3.20;2.17;;;;;;;27.23;51.93;100763.52;1758667;81;26641;-82
2022/07/04 10:10:34;;;;;;;3.42;2.45;;;;;;;27.23;51.03;100764.35;1752950;81;25865;-82
2022/07/04 10:13:05;;;;;;;3.50;2.10;;;;;;;27.22;50.95;100755.82;1705915;83;27502;-82
2022/07/04 10:15:34;;;;;;;5.17;2.25;;;;;;;27.18;51.22;100760.85;1752670;81;26428;-82
2022/07/04 10:18:01;;;;;;;4.05;2.22;;;;;;;27.24;51.80;100763.80;1707731;83;25765;-82
2022/07/04 10:20:29;;;;;;;2.90;2.70;;;;;;;27.31;51.64;100756.82;1754265;81;25757;-82
2022/07/04 10:22:57;;;;;;;4.55;2.65;;;;;;;27.35;51.70;100755.15;1713783;83;25655;-82
2022/07/04 10:25:23;;;;;;;3.87;2.77;;;;;;;27.40;51.71;100756.47;1753243;80;27405;-82
2022/07/04 10:27:51;;;;;;;4.70;2.83;;;;;;;27.46;50.86;100752.54;1710464;83;25970;-82
2022/07/04 10:30:36;;;;;;;2.55;2.35;;;;;;;27.47;51.33;100761.07;1742396;81;25824;-82
2022/07/04 10:33:09;;;;;;;3.30;2.62;;;;;;;27.51;50.90;100757.16;1753026;81;25915;-82
2022/07/04 10:36:01;;;;;;;2.60;2.40;;;;;;;27.51;51.00;100753.03;1752181;80;25969;-82
2022/07/04 10:38:34;;;;;;;4.40;2.47;;;;;;;27.53;50.26;100749.98;1753183;80;27494;-82
2022/07/04 10:41:08;;;;;;;4.37;2.83;;;;;;;27.54;50.38;100750.26;1753211;81;25835;-82
2022/07/04 10:43:38;;;;;;;9.33;2.95;;;;;;;27.63;50.97;100755.37;1752651;81;25325;-82
2022/07/04 10:46:16;;;;;;;4.20;2.85;;;;;;;27.69;50.45;100762.44;1712350;81;25914;-83
2022/07/04 10:49:17;;;;;;;2.87;2.67;;;;;;;27.72;50.45;100759.91;1753157;81;25843;-82
2022/07/04 10:52:11;;;;;;;2.62;2.42;;;;;;;27.78;51.40;100749.66;1667891;84;27560;-82
2022/07/04 10:54:41;;;;;;;3.87;2.30;;;;;;;27.83;51.21;100744.06;1641492;85;26744;-82
2022/07/04 10:57:22;;;;;;;2.90;2.37;;;;;;;27.89;50.68;100746.45;1672314;84;25847;-82
2022/07/04 11:00:01;;;;;;;3.25;2.70;;;;;;;27.92;50.29;100750.55;1749545;81;26326;-82
2022/07/04 11:02:32;;;;;;;6.03;2.45;;;;;;;27.95;50.55;100748.00;1751097;81;25786;-82
2022/07/04 11:05:11;;;;;;;3.22;2.75;;;;;;;28.00;51.10;100745.77;1758309;81;27893;-82
2022/07/04 11:07:43;;;;;;;2.52;2.22;;;;;;;28.06;50.83;100737.69;1758545;81;25882;-82
2022/07/04 11:10:21;;;;;;;3.70;2.42;;;;;;;28.14;50.38;100729.56;1752700;81;25848;-81
2022/07/04 11:13:01;;;;;;;3.22;2.52;;;;;;;28.17;49.38;100728.97;1758323;80;25829;-81
2022/07/04 11:15:36;;;;;;;2.37;2.17;;;;;;;28.18;48.89;100736.13;1753080;80;25838;-81
2022/07/04 11:18:08;;;;;;;6.30;2.72;;;;;;;28.16;47.91;100734.20;1758500;81;28313;-81
2022/07/04 11:20:38;;;;;;;3.98;2.75;;;;;;;28.15;47.40;100731.77;1753242;81;25763;-82
2022/07/04 11:23:08;;;;;;;;;;;;;;;28.20;48.53;100728.39;1714846;83;25735;-82
2022/07/04 11:25:36;;;;;;;3.50;2.90;;;;;;;28.26;49.08;100727.73;1746753;81;26127;-82
2022/07/04 11:28:29;;;;;;;3.00;2.80;;;;;;;28.29;49.11;100723.56;1732349;82;26371;-81
2022/07/04 11:31:00;;;;;;;3.87;2.62;;;;;;;28.34;49.10;100726.21;1755410;81;28004;-82
2022/07/04 11:33:30;;;;;;;6.28;3.00;;;;;;;28.37;49.02;100718.73;1755438;81;25946;-81
2022/07/04 11:36:07;;;;;;;2.83;2.62;;;;;;;28.43;49.40;100714.22;1755701;80;35001;-82
2022/07/04 11:39:00;;;;;;;3.02;2.75;;;;;;;28.51;49.59;100713.52;1753060;81;26602;-81
2022/07/04 11:47:19;;;;;;;2.70;2.50;;;;;;;28.65;49.11;100713.59;1725802;83;25904;-82
2022/07/04 11:49:55;;;;;;;2.95;2.37;;;;;;;28.61;47.87;100711.18;1753745;81;25313;-81